首页
METAR-TAF:

METAR-TAF

机场 :

Fort Bragg, 北卡罗来纳州, 美国

纬度: 35-08N, 经度: 078-56W, 海拔: 74米

当前天气观测

该预报发布于27分钟前的13:56 UTC
风速13节,风向,有时为21节阵风
温度 16°C
湿度 100%
气压 1014 hPa
能見度: 16.1公里
阴天层高于1000英尺

METAR: KFBG 241356Z AUTO 09013G21KT 10SM OVC010 16/16 A2994 RMK AO2 RAE10 SLP141 P0001 T01640159 $

时间: 10:23 (14:23 UTC)

预报

该预报发布于3小时和58分钟前的10:25 UTC
预报有效从24日的 10点(UTC)到 25日的 15点(UTC)
风速10节,风向,有时为15节阵风
能見度: 6000
阴天层高于800英尺
短暂存在
从 24日的 10点(UTC)到 24日的 14点(UTC)
阴天层高于500英尺
成为
从 24日的 14点(UTC)到 24日的 15点(UTC)
风速15节,风向,有时为25节阵风
能見度: 8000
阴天层高于800英尺
小阵雨
成为
从 24日的 17点(UTC)到 24日的 18点(UTC)
风速15节,风向东转东南
能見度: 8000
散云层高于600英尺
阴天层高于2000英尺, 积雨云.
小阵雨, 附近有雷暴
短暂存在
从 24日的 19点(UTC)到 24日的 23点(UTC)
风速15节,风向东转东南,有时为25节阵风
能見度: 3200
阴天层高于600英尺, 积雨云.
雷暴, 雨
成为
从 25日的 00点(UTC)到 25日的 01点(UTC)
风速6节,风向
能见度10公里或以上
多云层高于2000英尺
成为
从 25日的 08点(UTC)到 25日的 09点(UTC)
风速6节,风向西转西南
能見度: 8000
多云层高于1500英尺
轻雾

TAF: KFBG 241025Z 2410/2515 09010G15KT 6000 RA OVC008 WS020/12045KT QNH2995INS TEMPO 2410/2414 OVC005 BECMG 2414/2415 10015G25KT 8000 -SHRA OVC008 540204 QNH2987INS BECMG 2417/2418 11015KT 8000 -SHRA VCTS SCT006 OVC020CB 510206 QNH2975INS TEMPO 2419/2423 12015G25KT 3200 TSRA OVC006CB BECMG 2500/2501 18006KT 9999 NSW BKN020 QNH2976INS BECMG 2508/2509 24006KT 8000 BR BKN015 QNH2978INS TX22/2421Z TN15/2412Z

超过4000个机场的气象观测和天气预报(METAR&TAF报告)。

可查询的气象台以黄色和红色小点在地图上表示。

将鼠标移到小点上方,可查看气象台名称。

然后点击查看天气观测和预报。

如需切换地图:点击带黑十字的绿色按钮放大地图;点击带横线的绿色按钮缩小地图;或者点击绿色箭头查看邻近地区的地图。


METAR-TAF: